EGEO/OBN METAR and TAF weather

Enter ICAO airport designator
Station Type Date Time Source
EGEO METAR 2018/01/19 15:50 UTC NOAA

EGEO 191550Z 23006KT 9999 VCSH FEW018 SCT035CB 01/01 Q0998


Station Type Date Time Source
EGEO Decoded METAR 2018/01/19 15:50 UTC NOAA

Station name not available
Jan 19, 2018 - 10:50 AM EST / 2018.01.19 1550 UTC
Wind: from the SW (230 degrees) at 7 MPH (6 KT):0
Visibility: greater than 7 mile(s):0
Sky conditions: partly cloudy
Weather: showers in the vicinity; Cumulonimbus clouds observed
Temperature: 33 F (1 C)
Windchill: 26 F (-3 C):1
Dew Point: 33 F (1 C)
Relative Humidity: 100%
Pressure (altimeter): 29.47 in. Hg (0998 hPa)
ob: EGEO 191550Z 23006KT 9999 VCSH FEW018 SCT035CB 01/01 Q0998
cycle: 16

Station Type Date Time Source
EGEO TAF UTC NOAA

Error!


Example: see airport list